Helena, California
Current Conditions -  °F | °C
As of 6:15 PM on Thursday 18 Dec 2014 (Local Time) from KO54 Reporting Station
Overcast Overcast  
Wind Chill: 45°   Ceiling: 2800
Heat Index: 45°   Visibility: 10mi
Dew Point: 41°   Wind: 3mph
Humidity: 87%   Direction: 40°NE
Pressure: 30.1"   Gusts: NA
Location:  40.882°N, 123.084°W
Report Text: KO54 190215Z AUTO 04003KT 10SM SCT018 OVC028 07/05 A3010 RMK AO1
Loading
Personal Weather Stations






























Interactive Weather Map New forecast layout! Learn more

10-Day Weather Forecast

Advertisements
Track Severe Weather on mobile